createdAt,value
2022-10-01T00:09:43.735Z,100.00
2022-10-01T00:12:48.035Z,100.00
2022-10-01T00:15:49.996Z,100.00
2022-10-01T00:18:54.323Z,100.00
2022-10-01T00:22:00.898Z,100.00
2022-10-01T00:25:05.641Z,100.00
2022-10-01T01:55:21.437Z,100.00
2022-10-01T01:58:27.384Z,100.00
2022-10-01T02:01:43.140Z,100.00
2022-10-01T02:04:58.797Z,100.00
2022-10-01T02:08:23.174Z,100.00
2022-10-01T02:11:32.921Z,100.00
2022-10-01T02:14:44.495Z,100.00
2022-10-01T02:17:54.449Z,100.00
2022-10-01T02:21:06.343Z,100.00
2022-10-01T02:24:20.116Z,100.00
2022-10-01T02:27:43.001Z,100.00
2022-10-01T02:30:48.161Z,100.00
2022-10-01T02:33:52.925Z,100.00
2022-10-01T02:36:55.940Z,100.00
2022-10-01T02:39:57.984Z,100.00
2022-10-01T02:43:02.010Z,100.00
2022-10-01T02:46:10.697Z,100.00
2022-10-01T02:49:13.452Z,100.00
2022-10-01T02:52:21.267Z,100.00
2022-10-01T02:55:29.403Z,100.00
2022-10-01T02:58:31.418Z,100.00
2022-10-01T03:01:34.167Z,100.00
2022-10-01T03:04:36.554Z,100.00
2022-10-01T03:07:40.098Z,100.00
2022-10-01T03:10:46.020Z,100.00
2022-10-01T03:13:48.731Z,100.00
2022-10-01T03:16:51.402Z,100.00
2022-10-01T03:19:53.194Z,100.00
2022-10-01T03:22:55.204Z,100.00
2022-10-01T03:25:56.968Z,100.00
2022-10-01T03:28:58.849Z,100.00
2022-10-01T03:32:00.755Z,100.00
2022-10-01T03:35:02.877Z,100.00
2022-10-01T03:38:04.931Z,100.00
2022-10-01T03:41:06.773Z,100.00
2022-10-01T03:44:08.663Z,100.00
2022-10-01T03:47:11.087Z,100.00
2022-10-01T03:50:13.888Z,100.00
2022-10-01T03:53:16.147Z,100.00
2022-10-01T03:56:18.719Z,100.00
2022-10-01T03:59:21.325Z,100.00
2022-10-01T04:02:23.431Z,100.00
2022-10-01T04:05:26.653Z,100.00
2022-10-01T04:08:29.158Z,100.00
2022-10-01T04:11:31.344Z,100.00
2022-10-01T04:14:33.473Z,100.00
2022-10-01T04:17:36.220Z,100.00
2022-10-01T04:20:38.237Z,100.00
2022-10-01T04:23:40.299Z,100.00
2022-10-01T04:26:42.276Z,100.00
2022-10-01T04:29:44.183Z,100.00
2022-10-01T04:32:46.102Z,100.00
2022-10-01T04:35:47.963Z,100.00
2022-10-01T04:38:57.946Z,100.00
2022-10-01T04:42:03.127Z,100.00
2022-10-01T04:45:05.316Z,100.00
2022-10-01T04:48:07.267Z,100.00
2022-10-01T04:51:09.190Z,100.00
2022-10-01T04:54:11.082Z,100.00
2022-10-01T04:57:13.024Z,100.00
2022-10-01T05:00:20.067Z,100.00
2022-10-01T05:03:22.002Z,100.00
2022-10-01T05:06:24.050Z,100.00
2022-10-01T05:09:26.102Z,100.00
2022-10-01T05:12:28.254Z,100.00
2022-10-01T05:15:30.662Z,100.00
2022-10-01T05:18:32.655Z,100.00
2022-10-01T05:21:35.419Z,100.00
2022-10-01T05:24:37.504Z,100.00
2022-10-01T05:27:40.756Z,100.00
2022-10-01T05:30:49.608Z,100.00
2022-10-01T05:33:51.660Z,100.00
2022-10-01T05:36:54.767Z,100.00
2022-10-01T05:39:56.748Z,100.00
2022-10-01T05:43:00.466Z,100.00
2022-10-01T05:46:03.562Z,100.00
2022-10-01T05:49:07.107Z,100.00
2022-10-01T05:52:10.330Z,100.00
2022-10-01T05:55:12.467Z,100.00
2022-10-01T05:58:14.604Z,100.00
2022-10-01T06:01:16.548Z,100.00
2022-10-01T06:04:19.011Z,100.00
2022-10-01T06:07:27.561Z,100.00
2022-10-01T06:10:32.381Z,100.00
2022-10-01T06:13:37.353Z,100.00
2022-10-01T06:16:46.362Z,100.00
2022-10-01T06:19:49.092Z,100.00
2022-10-01T06:22:55.653Z,100.00
2022-10-01T06:26:00.069Z,100.00
2022-10-01T06:29:03.730Z,100.00
2022-10-01T06:32:11.091Z,100.00
2022-10-01T06:35:13.304Z,100.00
2022-10-01T06:38:18.244Z,100.00
2022-10-01T06:41:20.541Z,100.00
2022-10-01T06:44:22.911Z,100.00
2022-10-01T06:47:25.176Z,100.00
2022-10-01T06:50:27.346Z,100.00
2022-10-01T06:53:29.733Z,100.00
2022-10-01T06:56:32.081Z,100.00
2022-10-01T06:59:36.434Z,100.00
2022-10-01T07:02:38.600Z,100.00
2022-10-01T07:05:41.115Z,100.00
2022-10-01T07:08:43.757Z,100.00
2022-10-01T07:11:45.984Z,100.00
2022-10-01T07:14:48.119Z,100.00
2022-10-01T07:17:51.128Z,100.00
2022-10-01T07:20:53.257Z,100.00
2022-10-01T07:23:55.283Z,100.00
2022-10-01T07:26:57.209Z,100.00
2022-10-01T07:29:59.208Z,100.00
2022-10-01T07:33:01.192Z,100.00
2022-10-01T07:36:04.737Z,100.00
2022-10-01T07:39:06.712Z,100.00
2022-10-01T07:42:08.836Z,100.00
2022-10-01T07:45:11.095Z,100.00
2022-10-01T07:48:14.994Z,100.00
2022-10-01T07:51:16.963Z,100.00
2022-10-01T07:54:20.197Z,100.00
2022-10-01T07:57:23.427Z,100.00
2022-10-01T08:00:28.368Z,100.00
2022-10-01T08:03:30.344Z,100.00
2022-10-01T08:06:32.295Z,100.00
2022-10-01T08:09:34.441Z,100.00
2022-10-01T08:12:36.500Z,100.00
2022-10-01T08:15:38.398Z,100.00
2022-10-01T08:18:40.844Z,100.00
2022-10-01T08:21:42.862Z,100.00
2022-10-01T08:24:44.823Z,100.00
2022-10-01T08:27:48.200Z,100.00
2022-10-01T08:30:50.241Z,100.00
2022-10-01T08:33:53.478Z,100.00
2022-10-01T08:36:55.747Z,100.00
2022-10-01T08:39:57.606Z,100.00
2022-10-01T08:43:01.386Z,100.00
2022-10-01T08:46:05.381Z,100.00
2022-10-01T08:49:15.486Z,100.00
2022-10-01T08:52:26.275Z,100.00
2022-10-01T08:55:31.915Z,100.00
2022-10-01T08:58:43.824Z,100.00
2022-10-01T09:01:45.762Z,100.00
2022-10-01T09:04:49.631Z,100.00
2022-10-01T09:08:15.315Z,100.00
2022-10-01T09:11:29.572Z,100.00
2022-10-01T09:14:45.967Z,100.00
2022-10-01T09:17:53.507Z,100.00
2022-10-01T09:20:57.523Z,100.00
2022-10-01T09:24:22.446Z,100.00
2022-10-01T09:27:26.514Z,100.00
2022-10-01T09:30:29.165Z,100.00
2022-10-01T09:33:32.173Z,100.00
2022-10-01T09:36:41.762Z,100.00
2022-10-01T09:39:57.560Z,100.00
2022-10-01T09:43:00.655Z,100.00
2022-10-01T09:46:05.271Z,100.00
2022-10-01T09:49:12.951Z,100.00
2022-10-01T09:52:33.596Z,100.00
2022-10-01T09:55:44.419Z,100.00
2022-10-01T09:58:50.260Z,100.00
2022-10-01T10:01:55.076Z,100.00
2022-10-01T10:05:00.971Z,100.00
2022-10-01T10:08:04.476Z,100.00
2022-10-01T10:11:08.601Z,100.00
2022-10-01T10:14:25.116Z,100.00
2022-10-01T10:17:27.262Z,100.00
2022-10-01T10:20:31.511Z,100.00
2022-10-01T10:23:34.423Z,100.00
2022-10-01T10:26:39.357Z,100.00
2022-10-01T10:29:41.456Z,100.00
2022-10-01T10:32:44.579Z,100.00
2022-10-01T10:35:46.635Z,100.00
2022-10-01T10:38:50.187Z,100.00
2022-10-01T10:41:53.215Z,100.00
2022-10-01T10:44:57.208Z,100.00
2022-10-01T10:48:01.507Z,100.00
2022-10-01T10:51:04.907Z,100.00
2022-10-01T10:54:19.345Z,100.00
2022-10-01T10:57:24.904Z,100.00
2022-10-01T11:00:27.178Z,100.00
2022-10-01T11:03:33.052Z,100.00
2022-10-01T11:06:35.973Z,100.00
2022-10-01T11:09:38.613Z,100.00
2022-10-01T11:12:57.273Z,100.00
2022-10-01T11:16:24.672Z,100.00
2022-10-01T11:19:55.022Z,100.00
2022-10-01T11:22:57.749Z,100.00
2022-10-01T11:26:11.055Z,100.00
2022-10-01T11:29:23.052Z,100.00
2022-10-01T11:32:26.734Z,100.00
2022-10-01T11:35:33.180Z,100.00
2022-10-01T11:38:59.201Z,100.00
2022-10-01T11:42:06.799Z,100.00
2022-10-01T11:45:18.423Z,100.00
2022-10-01T11:48:34.919Z,100.00
2022-10-01T11:51:43.838Z,100.00
2022-10-01T11:55:24.727Z,100.00
2022-10-01T11:58:53.284Z,100.00
2022-10-01T12:02:17.606Z,100.00
2022-10-01T12:05:26.407Z,100.00
2022-10-01T12:08:33.060Z,100.00
2022-10-01T12:11:47.269Z,100.00
2022-10-01T12:14:53.865Z,100.00
2022-10-01T12:18:08.180Z,100.00
2022-10-01T12:21:19.774Z,100.00
2022-10-01T12:24:31.913Z,100.00
2022-10-01T12:27:41.027Z,100.00
2022-10-01T12:30:51.194Z,100.00
2022-10-01T12:33:53.995Z,100.00
2022-10-01T12:36:59.622Z,100.00
2022-10-01T12:40:05.378Z,100.00
2022-10-01T12:43:14.538Z,100.00
2022-10-01T12:46:35.848Z,100.00
2022-10-01T12:49:52.265Z,100.00
2022-10-01T12:53:09.898Z,100.00
2022-10-01T12:56:18.601Z,100.00
2022-10-01T12:59:26.939Z,100.00
2022-10-01T13:02:48.774Z,100.00
2022-10-01T13:06:05.468Z,100.00
2022-10-01T13:09:14.909Z,100.00
2022-10-01T13:12:39.231Z,100.00
2022-10-01T13:15:47.713Z,100.00
2022-10-01T13:19:06.379Z,100.00
2022-10-01T13:22:15.391Z,100.00
2022-10-01T13:25:30.200Z,100.00
2022-10-01T13:28:53.111Z,100.00
2022-10-01T13:32:00.036Z,100.00
2022-10-01T13:35:20.822Z,100.00
2022-10-01T13:38:34.285Z,100.00
2022-10-01T13:41:40.060Z,100.00
2022-10-01T13:44:42.752Z,100.00
2022-10-01T13:47:45.916Z,100.00
2022-10-01T13:50:56.379Z,100.00
2022-10-01T13:54:00.904Z,100.00
2022-10-01T13:57:10.272Z,100.00
2022-10-01T14:00:12.206Z,100.00
2022-10-01T14:03:34.397Z,100.00
2022-10-01T14:06:36.646Z,100.00
2022-10-01T14:09:44.281Z,100.00
2022-10-01T14:13:05.494Z,100.00
2022-10-01T14:16:07.611Z,100.00
2022-10-01T14:19:09.621Z,100.00
2022-10-01T14:22:17.944Z,100.00
2022-10-01T14:25:22.279Z,100.00
2022-10-01T14:28:24.144Z,100.00
2022-10-01T14:31:33.131Z,100.00
2022-10-01T14:34:34.933Z,100.00
2022-10-01T14:37:37.553Z,100.00
2022-10-01T14:40:43.437Z,100.00
2022-10-01T14:43:45.758Z,100.00
2022-10-01T14:46:48.403Z,100.00
2022-10-01T14:49:51.340Z,100.00
2022-10-01T14:52:55.029Z,100.00
2022-10-01T14:55:59.151Z,100.00
2022-10-01T14:59:04.155Z,100.00
2022-10-01T15:02:25.631Z,100.00
2022-10-01T15:05:31.748Z,100.00
2022-10-01T15:08:38.316Z,100.00
2022-10-01T15:11:44.272Z,100.00
2022-10-01T15:14:47.327Z,100.00
2022-10-01T15:17:49.568Z,100.00
2022-10-01T15:20:54.472Z,100.00
2022-10-01T15:23:58.008Z,100.00
2022-10-01T15:27:00.925Z,100.00
2022-10-01T15:30:02.850Z,100.00
2022-10-01T15:33:04.805Z,100.00
2022-10-01T15:36:17.212Z,100.00
2022-10-01T15:39:24.707Z,100.00
2022-10-01T15:42:31.942Z,100.00
2022-10-01T15:45:33.980Z,100.00
2022-10-01T15:48:35.842Z,100.00
2022-10-01T15:51:43.204Z,100.00
2022-10-01T15:54:45.707Z,100.00
2022-10-01T15:57:52.327Z,100.00
2022-10-01T16:00:56.112Z,100.00
2022-10-01T16:04:16.253Z,100.00
2022-10-01T16:07:22.387Z,100.00
2022-10-01T16:10:37.758Z,100.00
2022-10-01T16:13:41.184Z,100.00
2022-10-01T16:16:43.401Z,100.00
2022-10-01T16:19:46.399Z,100.00
2022-10-01T16:22:48.223Z,100.00
2022-10-01T16:25:50.049Z,100.00
2022-10-01T16:28:54.429Z,100.00
2022-10-01T16:31:56.523Z,100.00
2022-10-01T16:35:17.099Z,100.00
2022-10-01T16:38:19.004Z,100.00
2022-10-01T16:41:23.108Z,100.00
2022-10-01T16:44:25.070Z,100.00
2022-10-01T16:47:27.231Z,100.00
2022-10-01T16:50:30.713Z,100.00
2022-10-01T16:53:33.485Z,100.00
2022-10-01T16:56:36.493Z,100.00
2022-10-01T16:59:39.316Z,100.00
2022-10-01T17:02:41.709Z,100.00
2022-10-01T17:05:45.976Z,100.00
2022-10-01T17:08:48.085Z,100.00
2022-10-01T17:11:50.689Z,100.00
2022-10-01T17:14:53.150Z,100.00
2022-10-01T17:17:57.436Z,100.00
2022-10-01T17:21:02.585Z,100.00
2022-10-01T17:24:04.841Z,100.00
2022-10-01T17:27:07.283Z,100.00
2022-10-01T17:30:10.665Z,100.00
2022-10-01T17:33:14.986Z,100.00
2022-10-01T17:36:17.933Z,100.00
2022-10-01T17:39:21.641Z,100.00
2022-10-01T17:42:26.396Z,100.00
2022-10-01T17:45:30.971Z,100.00
2022-10-01T17:48:33.396Z,100.00
2022-10-01T17:51:37.445Z,100.00
2022-10-01T17:54:40.492Z,100.00
2022-10-01T17:57:44.512Z,97.78
2022-10-01T18:00:50.402Z,99.65
2022-10-01T18:03:56.016Z,97.72
2022-10-01T18:07:00.636Z,94.81
2022-10-01T18:10:04.569Z,98.83
2022-10-01T18:13:07.754Z,94.70
2022-10-01T18:16:18.333Z,95.05
2022-10-01T18:22:45.522Z,100.00
2022-10-01T18:25:48.429Z,100.00
2022-10-01T18:28:51.945Z,100.00
2022-10-01T18:32:01.532Z,100.00
2022-10-01T18:35:09.396Z,100.00
2022-10-01T18:38:24.159Z,100.00
2022-10-01T18:41:39.374Z,100.00
2022-10-01T18:44:43.365Z,100.00
2022-10-01T18:48:10.212Z,100.00
2022-10-01T18:51:23.597Z,100.00
2022-10-01T18:54:29.250Z,100.00
2022-10-01T18:57:37.752Z,100.00
2022-10-01T19:00:42.399Z,100.00
2022-10-01T19:04:03.572Z,100.00
2022-10-01T19:07:19.358Z,100.00
2022-10-01T19:10:46.954Z,100.00
2022-10-01T19:13:57.322Z,100.00
2022-10-01T19:17:00.649Z,100.00
2022-10-01T19:20:06.595Z,100.00
2022-10-01T19:23:16.610Z,100.00
2022-10-01T19:26:29.021Z,100.00
2022-10-01T19:29:34.848Z,100.00
2022-10-01T19:32:48.561Z,100.00
2022-10-01T19:35:54.142Z,100.00
2022-10-01T19:38:59.934Z,100.00
2022-10-01T19:42:07.805Z,100.00
2022-10-01T19:45:24.700Z,100.00
2022-10-01T19:48:36.901Z,97.76
2022-10-01T19:51:40.094Z,100.00
2022-10-01T19:54:46.438Z,93.29
2022-10-01T19:57:49.196Z,88.28
2022-10-01T20:00:56.120Z,90.65
2022-10-01T20:04:02.267Z,89.11
2022-10-01T20:07:09.865Z,88.15
2022-10-01T20:10:23.105Z,88.84
2022-10-01T20:13:32.639Z,89.11
2022-10-01T20:16:43.976Z,89.69
2022-10-01T20:19:59.922Z,89.11
2022-10-01T20:23:16.843Z,90.22
2022-10-01T20:26:27.434Z,90.47
2022-10-01T20:29:31.378Z,90.38
2022-10-01T20:32:36.690Z,90.25
2022-10-01T20:35:45.616Z,91.95
2022-10-01T20:39:04.157Z,91.19
2022-10-01T20:42:15.548Z,92.38
2022-10-01T20:45:27.401Z,94.03
2022-10-01T20:48:37.425Z,99.07
2022-10-01T20:51:46.256Z,97.50
2022-10-01T20:54:57.026Z,97.45
2022-10-01T20:58:03.295Z,100.00
2022-10-01T21:01:13.275Z,100.00
2022-10-01T21:04:22.367Z,100.00
2022-10-01T21:07:46.565Z,98.88
2022-10-01T21:11:13.012Z,100.00
2022-10-01T21:14:29.529Z,100.00
2022-10-01T21:18:09.767Z,100.00
2022-10-01T21:21:34.262Z,100.00
2022-10-01T21:24:47.399Z,99.72
2022-10-01T21:28:12.785Z,99.47
2022-10-01T21:31:29.788Z,100.00
2022-10-01T21:34:51.997Z,100.00
2022-10-01T21:38:15.056Z,100.00
2022-10-01T21:41:38.298Z,100.00
2022-10-01T21:45:01.077Z,100.00
2022-10-01T21:48:07.944Z,100.00
2022-10-01T21:51:16.991Z,100.00
2022-10-01T21:54:19.121Z,100.00
2022-10-01T21:57:29.001Z,100.00
2022-10-01T22:00:35.854Z,100.00
2022-10-01T22:03:47.265Z,100.00
2022-10-01T22:06:53.283Z,100.00
2022-10-01T22:10:08.301Z,100.00
2022-10-01T22:13:20.304Z,100.00
2022-10-01T22:16:27.460Z,100.00
2022-10-01T22:19:37.801Z,100.00
2022-10-01T22:22:48.198Z,100.00
2022-10-01T22:26:11.387Z,100.00
2022-10-01T22:29:22.366Z,100.00
2022-10-01T22:32:29.660Z,100.00
2022-10-01T22:35:44.532Z,100.00
2022-10-01T22:38:55.513Z,100.00
2022-10-01T22:42:04.151Z,100.00
2022-10-01T22:45:13.405Z,100.00
2022-10-01T22:48:27.575Z,100.00
2022-10-01T22:51:54.174Z,100.00
2022-10-01T22:55:16.311Z,100.00
2022-10-01T22:58:37.736Z,100.00
2022-10-01T23:01:40.346Z,100.00
2022-10-01T23:04:53.187Z,100.00
2022-10-01T23:08:16.939Z,100.00
2022-10-01T23:11:25.241Z,100.00
2022-10-01T23:14:51.988Z,100.00
2022-10-01T23:18:03.581Z,100.00
2022-10-01T23:21:12.420Z,100.00
2022-10-01T23:24:20.509Z,100.00
2022-10-01T23:27:33.678Z,100.00
2022-10-01T23:30:59.679Z,100.00
2022-10-01T23:34:08.403Z,100.00
2022-10-01T23:37:28.187Z,100.00
2022-10-01T23:40:37.220Z,100.00
2022-10-01T23:43:51.572Z,100.00
2022-10-01T23:46:58.665Z,100.00
2022-10-01T23:50:02.363Z,100.00
2022-10-01T23:53:16.426Z,100.00
2022-10-01T23:56:43.790Z,100.00
